createdAt,value
2022-10-08T00:07:41.392Z,14.97
2022-10-08T00:36:02.628Z,15.04
2022-10-08T01:04:25.241Z,14.78
2022-10-08T01:32:47.649Z,14.51
2022-10-08T02:01:00.904Z,14.64
2022-10-08T02:29:15.122Z,14.72
2022-10-08T02:57:45.540Z,14.91
2022-10-08T03:26:04.012Z,14.67
2022-10-08T03:54:31.742Z,14.6
2022-10-08T04:23:26.642Z,14.38
2022-10-08T04:52:26.728Z,14.4
2022-10-08T05:21:27.032Z,14.43
2022-10-08T05:50:27.853Z,14.49
2022-10-08T06:19:27.537Z,14.48
2022-10-08T06:47:50.132Z,15.11
2022-10-08T07:16:55.991Z,15.94
2022-10-08T07:46:03.368Z,17.47
2022-10-08T08:14:31.342Z,17.71
2022-10-08T08:43:36.071Z,20.5
2022-10-08T09:12:54.852Z,20.84
2022-10-08T09:41:23.456Z,19.41
2022-10-08T10:09:55.174Z,20.14
2022-10-08T10:38:08.477Z,20.85
2022-10-08T11:06:34.440Z,22.07
2022-10-08T11:34:36.650Z,21.56
2022-10-08T12:03:37.015Z,20.34
2022-10-08T12:31:41.249Z,20.21
2022-10-08T13:00:11.840Z,19.91
2022-10-08T13:28:58.968Z,19.52
2022-10-08T13:56:54.098Z,19.04
2022-10-08T14:25:12.462Z,18.55
2022-10-08T14:53:30.840Z,18.53
2022-10-08T15:21:43.866Z,17.92
2022-10-08T15:50:39.141Z,17.38
2022-10-08T16:19:37.955Z,16.89
2022-10-08T16:48:28.836Z,16.16
2022-10-08T17:17:18.831Z,15.49
2022-10-08T17:45:34.310Z,14.96
2022-10-08T18:13:57.069Z,14.45
2022-10-08T18:42:17.889Z,13.91
2022-10-08T19:10:32.847Z,13.32
2022-10-08T19:38:59.334Z,13.21
2022-10-08T20:07:23.275Z,13
2022-10-08T20:35:36.849Z,12.38
2022-10-08T21:03:58.568Z,12.13
2022-10-08T21:32:57.771Z,11.74
2022-10-08T22:01:14.925Z,11.25
2022-10-08T22:30:00.128Z,10.91
2022-10-08T22:58:54.246Z,10.56
2022-10-08T23:27:49.063Z,10.22
2022-10-08T23:56:48.636Z,9.84
